Time;durP1;ratioP1;P1;durP2;ratioP2;P2;SDS_P1;SDS_P2;PMS_P1;PMS_P2;Temp;Humidity;BMP_temperature;BMP_pressure;BME280_temperature;BME280_humidity;BME280_pressure;Samples;Min_cycle;Max_cycle;Signal;HPM_P1;HPM_P2
2021/01/18 00:01:33;;;;;;;1.3;1.2;;;;;;;;;;;;;
2021/01/18 00:03:58;;;;;;;1.1;1;;;;;;;;;;;;;
2021/01/18 00:06:23;;;;;;;2.5;1.9;;;;;;;;;;;;;
2021/01/18 00:08:49;;;;;;;1.3;1.2;;;;;;;;;;;;;
2021/01/18 00:11:14;;;;;;;3.4;2.1;;;;;;;;;;;;;
2021/01/18 00:13:39;;;;;;;2;1.5;;;;;;;;;;;;;
2021/01/18 00:16:04;;;;;;;2.1;1.8;;;;;;;;;;;;;
2021/01/18 00:18:31;;;;;;;4.4;2.4;;;;;;;;;;;;;
2021/01/18 00:20:56;;;;;;;2.6;1.9;;;;;;;;;;;;;
2021/01/18 00:23:22;;;;;;;4.9;2.1;;;;;;;;;;;;;
2021/01/18 00:25:47;;;;;;;4.7;2.1;;;;;;;;;;;;;
2021/01/18 00:28:12;;;;;;;2.7;1.4;;;;;;;;;;;;;
2021/01/18 00:30:39;;;;;;;4.3;2.3;;;;;;;;;;;;;
2021/01/18 00:33:02;;;;;;;3.6;1.7;;;;;;;;;;;;;
2021/01/18 00:35:28;;;;;;;2.4;1.8;;;;;;;;;;;;;
2021/01/18 00:37:53;;;;;;;1.7;1.5;;;;;;;;;;;;;
2021/01/18 00:40:18;;;;;;;2.9;1.5;;;;;;;;;;;;;
2021/01/18 00:42:43;;;;;;;2.5;1.9;;;;;;;;;;;;;
2021/01/18 00:45:08;;;;;;;5;1.8;;;;;;;;;;;;;
2021/01/18 00:47:33;;;;;;;2;1.2;;;;;;;;;;;;;
2021/01/18 00:49:58;;;;;;;5.6;2;;;;;;;;;;;;;
2021/01/18 00:52:23;;;;;;;1.3;1.1;;;;;;;;;;;;;
2021/01/18 00:54:49;;;;;;;1.4;1;;;;;;;;;;;;;
2021/01/18 00:57:14;;;;;;;2.7;1.8;;;;;;;;;;;;;
2021/01/18 00:59:39;;;;;;;1.9;1.3;;;;;;;;;;;;;
2021/01/18 01:02:05;;;;;;;1.4;1.2;;;;;;;;;;;;;
2021/01/18 01:04:30;;;;;;;6.4;1.9;;;;;;;;;;;;;
2021/01/18 01:06:56;;;;;;;1.4;1.3;;;;;;;;;;;;;
2021/01/18 01:09:22;;;;;;;2.5;1.7;;;;;;;;;;;;;
2021/01/18 01:11:47;;;;;;;2;1.1;;;;;;;;;;;;;
2021/01/18 01:14:12;;;;;;;2.2;1.2;;;;;;;;;;;;;
2021/01/18 01:16:38;;;;;;;2.9;1.6;;;;;;;;;;;;;
2021/01/18 01:19:03;;;;;;;1.1;0.8;;;;;;;;;;;;;
2021/01/18 01:21:29;;;;;;;1.2;1.1;;;;;;;;;;;;;
2021/01/18 01:23:54;;;;;;;2;1.5;;;;;;;;;;;;;
2021/01/18 01:26:19;;;;;;;2;1.4;;;;;;;;;;;;;
2021/01/18 01:28:45;;;;;;;1.2;0.9;;;;;;;;;;;;;
2021/01/18 01:31:10;;;;;;;1.7;1.5;;;;;;;;;;;;;
2021/01/18 01:33:35;;;;;;;1.9;1.3;;;;;;;;;;;;;
2021/01/18 01:36:01;;;;;;;1.5;1.3;;;;;;;;;;;;;
2021/01/18 01:38:25;;;;;;;2.5;1.4;;;;;;;;;;;;;
2021/01/18 01:40:50;;;;;;;1.6;1.2;;;;;;;;;;;;;
2021/01/18 01:43:15;;;;;;;2.4;1.4;;;;;;;;;;;;;
2021/01/18 01:45:41;;;;;;;7.9;1.7;;;;;;;;;;;;;
2021/01/18 01:48:06;;;;;;;4.5;1.5;;;;;;;;;;;;;
2021/01/18 01:50:31;;;;;;;2.4;1.5;;;;;;;;;;;;;
2021/01/18 01:52:56;;;;;;;3.6;1.4;;;;;;;;;;;;;
2021/01/18 01:55:21;;;;;;;2.1;1.3;;;;;;;;;;;;;
2021/01/18 01:57:46;;;;;;;1.8;1.4;;;;;;;;;;;;;
2021/01/18 02:00:16;;;;;;;4;1.8;;;;;;;;;;;;;
2021/01/18 02:02:41;;;;;;;1.6;1.2;;;;;;;;;;;;;
2021/01/18 02:05:06;;;;;;;2.2;1.7;;;;;;;;;;;;;
2021/01/18 02:07:35;;;;;;;3.2;1.4;;;;;;;;;;;;;
2021/01/18 02:10:08;;;;;;;2.3;1.4;;;;;;;;;;;;;
2021/01/18 02:12:33;;;;;;;1.8;1.2;;;;;;;;;;;;;
2021/01/18 02:14:59;;;;;;;5.8;2.6;;;;;;;;;;;;;
2021/01/18 02:17:28;;;;;;;1.8;1.5;;;;;;;;;;;;;
2021/01/18 02:19:53;;;;;;;1.3;1.2;;;;;;;;;;;;;
2021/01/18 02:22:19;;;;;;;1.5;1.3;;;;;;;;;;;;;
2021/01/18 02:24:46;;;;;;;3.4;1.4;;;;;;;;;;;;;
2021/01/18 02:27:15;;;;;;;1;0.8;;;;;;;;;;;;;
2021/01/18 02:29:40;;;;;;;4.2;2.1;;;;;;;;;;;;;
2021/01/18 02:32:05;;;;;;;2.7;1.7;;;;;;;;;;;;;
2021/01/18 02:34:34;;;;;;;1.9;1.5;;;;;;;;;;;;;
2021/01/18 02:36:59;;;;;;;2.9;1.4;;;;;;;;;;;;;
2021/01/18 02:39:24;;;;;;;2.7;1.9;;;;;;;;;;;;;
2021/01/18 02:41:55;;;;;;;3.1;1.3;;;;;;;;;;;;;
2021/01/18 02:44:20;;;;;;;3.9;1.9;;;;;;;;;;;;;
2021/01/18 02:46:52;;;;;;;1.4;1.2;;;;;;;;;;;;;
2021/01/18 02:49:17;;;;;;;2;1.4;;;;;;;;;;;;;
2021/01/18 02:51:42;;;;;;;2.2;1.5;;;;;;;;;;;;;
2021/01/18 02:54:08;;;;;;;1.7;1.6;;;;;;;;;;;;;
2021/01/18 02:56:34;;;;;;;2.3;1.1;;;;;;;;;;;;;
2021/01/18 02:58:59;;;;;;;1.7;1.4;;;;;;;;;;;;;
2021/01/18 03:01:24;;;;;;;2.4;1.3;;;;;;;;;;;;;
2021/01/18 03:03:50;;;;;;;4.1;1.3;;;;;;;;;;;;;
2021/01/18 03:06:16;;;;;;;0.7;0.7;;;;;;;;;;;;;
2021/01/18 03:08:41;;;;;;;2.9;1.7;;;;;;;;;;;;;
2021/01/18 03:11:07;;;;;;;1.6;1.2;;;;;;;;;;;;;
2021/01/18 03:13:32;;;;;;;3.4;1.5;;;;;;;;;;;;;
2021/01/18 03:16:01;;;;;;;3.5;1.7;;;;;;;;;;;;;
2021/01/18 03:18:26;;;;;;;1.8;1.4;;;;;;;;;;;;;
2021/01/18 03:20:53;;;;;;;4;2.1;;;;;;;;;;;;;
2021/01/18 03:23:18;;;;;;;0.9;0.9;;;;;;;;;;;;;
2021/01/18 03:25:47;;;;;;;3.2;1.8;;;;;;;;;;;;;
2021/01/18 03:28:12;;;;;;;2.4;1.7;;;;;;;;;;;;;
2021/01/18 03:30:41;;;;;;;2.9;1.7;;;;;;;;;;;;;
2021/01/18 03:33:06;;;;;;;2.2;1.6;;;;;;;;;;;;;
2021/01/18 03:35:32;;;;;;;2;1.7;;;;;;;;;;;;;
2021/01/18 03:37:57;;;;;;;1.2;1.1;;;;;;;;;;;;;
2021/01/18 03:40:22;;;;;;;3.3;1.2;;;;;;;;;;;;;
2021/01/18 03:42:47;;;;;;;2.7;1.6;;;;;;;;;;;;;
2021/01/18 03:45:18;;;;;;;3.8;1.2;;;;;;;;;;;;;
2021/01/18 03:47:43;;;;;;;3.5;1.5;;;;;;;;;;;;;
2021/01/18 03:50:08;;;;;;;2.4;1.9;;;;;;;;;;;;;
2021/01/18 03:52:41;;;;;;;1.5;1.4;;;;;;;;;;;;;
2021/01/18 03:55:06;;;;;;;1.3;1;;;;;;;;;;;;;
2021/01/18 03:57:31;;;;;;;2.4;1.6;;;;;;;;;;;;;
2021/01/18 03:59:56;;;;;;;1.5;1.1;;;;;;;;;;;;;
2021/01/18 04:02:33;;;;;;;0.8;0.7;;;;;;;1.52;86.30664;942.7473;;;;
2021/01/18 04:04:58;;;;;;;1;0.9;;;;;;;1.58;86.5752;942.7389;;;;
2021/01/18 04:07:25;;;;;;;1.2;1;;;;;;;1.59;86.57813;942.8222;;;;
2021/01/18 04:09:50;;;;;;;2;1.6;;;;;;;1.65;85.8623;942.8105;;;;
2021/01/18 04:12:17;;;;;;;1.2;1.1;;;;;;;1.53;85.7832;942.816;;;;
2021/01/18 04:14:42;;;;;;;1.5;1.1;;;;;;;1.57;85.90234;942.8549;;;;
2021/01/18 04:17:09;;;;;;;3.6;1.3;;;;;;;1.58;85.79395;942.8798;;;;
2021/01/18 04:19:35;;;;;;;1;0.8;;;;;;;1.57;85.93555;942.9506;;;;
2021/01/18 04:22:00;;;;;;;1.4;1.2;;;;;;;1.55;85.9209;942.813;;;;
2021/01/18 04:24:26;;;;;;;0.7;0.7;;;;;;;1.66;85.86426;942.8704;;;;
2021/01/18 04:26:53;;;;;;;1.4;1;;;;;;;1.65;85.5498;942.9469;;;;
2021/01/18 04:29:18;;;;;;;1.6;1.4;;;;;;;1.52;85.53516;942.9529;;;;
2021/01/18 04:31:45;;;;;;;0.8;0.8;;;;;;;1.44;85.95508;942.9156;;;;
2021/01/18 04:34:10;;;;;;;0.6;0.6;;;;;;;1.41;86.27344;942.868;;;;
2021/01/18 04:36:37;;;;;;;3.2;1;;;;;;;1.42;86.44141;942.9005;;;;
2021/01/18 04:39:02;;;;;;;1.8;1.2;;;;;;;1.45;86.1709;942.8898;;;;
2021/01/18 04:41:27;;;;;;;0.9;0.7;;;;;;;1.46;85.96973;942.9528;;;;
2021/01/18 04:43:52;;;;;;;0.5;0.5;;;;;;;1.09;87.81348;942.8945;;;;
2021/01/18 04:46:18;;;;;;;0.6;0.6;;;;;;;1.02;88.89453;942.9326;;;;
2021/01/18 04:48:43;;;;;;;0.8;0.8;;;;;;;1.12;88.91699;942.8682;;;;
2021/01/18 04:51:08;;;;;;;1.4;1.1;;;;;;;1.16;88.8916;942.918;;;;
2021/01/18 04:53:34;;;;;;;1.5;1.2;;;;;;;1.21;88.87891;942.9266;;;;
2021/01/18 04:56:01;;;;;;;1.4;1.2;;;;;;;1.33;88.64844;942.8651;;;;
2021/01/18 04:58:26;;;;;;;1.3;1.1;;;;;;;1.39;88.21289;942.9852;;;;
2021/01/18 05:00:51;;;;;;;1.1;1;;;;;;;1.45;87.8457;942.994;;;;
2021/01/18 05:03:16;;;;;;;4.2;1.1;;;;;;;1.52;87.56836;942.9973;;;;
2021/01/18 05:05:42;;;;;;;1;0.9;;;;;;;1.59;87.03711;943.0009;;;;
2021/01/18 05:08:07;;;;;;;3.3;1.2;;;;;;;1.64;86.7334;942.9774;;;;
2021/01/18 05:10:32;;;;;;;1.8;1.2;;;;;;;1.64;86.58789;943.0619;;;;
2021/01/18 05:12:57;;;;;;;0.8;0.8;;;;;;;1.6;86.62305;943.068;;;;
2021/01/18 05:15:25;;;;;;;1.5;1;;;;;;;1.48;87.47168;943.0266;;;;
2021/01/18 05:17:49;;;;;;;1.6;0.7;;;;;;;1.65;87.50684;943.0916;;;;
2021/01/18 05:20:14;;;;;;;1.7;1.3;;;;;;;1.71;87.0166;943.0606;;;;
2021/01/18 05:22:40;;;;;;;1.3;1.1;;;;;;;1.74;86.69922;943.0961;;;;
2021/01/18 05:25:06;;;;;;;0.7;0.7;;;;;;;1.66;86.76074;943.0261;;;;
2021/01/18 05:27:31;;;;;;;1.2;1;;;;;;;1.56;86.96484;943.0897;;;;
2021/01/18 05:29:57;;;;;;;3.4;1.5;;;;;;;1.58;87.1582;942.9746;;;;
2021/01/18 05:32:22;;;;;;;2.8;1.1;;;;;;;1.65;86.96094;943.0391;;;;
2021/01/18 05:34:47;;;;;;;3.3;1.5;;;;;;;1.71;86.83594;943.0745;;;;
2021/01/18 05:37:12;;;;;;;3.4;1.8;;;;;;;1.66;86.7168;943.14;;;;
2021/01/18 05:39:38;;;;;;;2.5;1.6;;;;;;;1.7;86.65527;943.0128;;;;
2021/01/18 05:42:03;;;;;;;3;1.6;;;;;;;1.67;86.52832;943.0698;;;;
2021/01/18 05:44:28;;;;;;;3.9;2.3;;;;;;;1.72;86.43652;943.0228;;;;
2021/01/18 05:46:53;;;;;;;3.7;1.7;;;;;;;1.74;86.26172;943.0604;;;;
2021/01/18 05:49:18;;;;;;;2.6;1.6;;;;;;;1.77;86.15527;942.9253;;;;
2021/01/18 05:51:43;;;;;;;2.3;1.6;;;;;;;1.8;85.88086;943.1058;;;;
2021/01/18 05:54:09;;;;;;;5.1;1.9;;;;;;;1.71;85.9541;942.9986;;;;
2021/01/18 05:56:35;;;;;;;2.7;1.7;;;;;;;1.63;86.07129;943.0873;;;;
2021/01/18 05:59:01;;;;;;;5.7;2.6;;;;;;;1.59;86.44238;943.0879;;;;
2021/01/18 06:01:26;;;;;;;4.7;2.4;;;;;;;1.62;86.49512;943.0524;;;;
2021/01/18 06:03:53;;;;;;;3.3;1.7;;;;;;;1.61;86.56152;942.9444;;;;
2021/01/18 06:06:18;;;;;;;1.9;1.1;;;;;;;1.58;86.46484;943.1316;;;;
2021/01/18 06:08:43;;;;;;;6.1;3.3;;;;;;;1.72;86.15723;943.1923;;;;
2021/01/18 06:11:11;;;;;;;4.8;2.8;;;;;;;1.7;86.33008;943.2231;;;;
2021/01/18 06:13:36;;;;;;;1.5;1.4;;;;;;;1.62;86.66211;943.3575;;;;
2021/01/18 06:16:02;;;;;;;2.3;1.7;;;;;;;1.68;86.2168;943.4509;;;;
2021/01/18 06:18:28;;;;;;;13.2;6;;;;;;;1.74;85.92578;943.3753;;;;
2021/01/18 06:20:54;;;;;;;3.9;1.5;;;;;;;1.59;86.53223;943.3484;;;;
2021/01/18 06:23:19;;;;;;;1.8;1.4;;;;;;;1.58;86.87695;943.421;;;;
2021/01/18 06:25:45;;;;;;;2.5;1.4;;;;;;;1.67;86.39355;943.5408;;;;
2021/01/18 06:28:10;;;;;;;2.8;2;;;;;;;1.66;86.40332;943.5723;;;;
2021/01/18 06:30:40;;;;;;;2.3;1.7;;;;;;;1.62;86.85254;943.5898;;;;
2021/01/18 06:33:07;;;;;;;3.7;2;;;;;;;1.69;87.03516;943.5896;;;;
2021/01/18 06:35:32;;;;;;;2.7;1.6;;;;;;;1.76;87.1377;943.5757;;;;
2021/01/18 06:37:57;;;;;;;2.8;1.6;;;;;;;1.87;87.0498;943.5493;;;;
2021/01/18 06:40:27;;;;;;;2.7;1.4;;;;;;;1.93;86.72754;943.5762;;;;
2021/01/18 06:42:52;;;;;;;1.8;1.3;;;;;;;1.78;86.91797;943.5909;;;;
2021/01/18 06:45:18;;;;;;;3;1.6;;;;;;;1.71;87.36328;943.5797;;;;
2021/01/18 06:47:43;;;;;;;1.8;1.2;;;;;;;1.76;87.21582;943.7076;;;;
2021/01/18 06:50:08;;;;;;;1.7;1.3;;;;;;;1.81;86.99219;943.7695;;;;
2021/01/18 06:52:33;;;;;;;3.2;2.7;;;;;;;1.94;86.52539;943.6235;;;;
2021/01/18 06:54:59;;;;;;;3;2.1;;;;;;;1.98;86.45605;943.7239;;;;
2021/01/18 06:57:24;;;;;;;1.3;1;;;;;;;2.01;86.38379;943.7342;;;;
2021/01/18 06:59:50;;;;;;;4.7;2.5;;;;;;;1.98;86.32227;943.7867;;;;
2021/01/18 07:02:16;;;;;;;38.5;19.3;;;;;;;1.84;86.86523;943.8408;;;;
2021/01/18 07:04:42;;;;;;;45;24.7;;;;;;;1.87;87.16211;943.8416;;;;
2021/01/18 07:07:07;;;;;;;15.5;9.8;;;;;;;1.89;87.23438;943.8285;;;;
2021/01/18 07:09:32;;;;;;;12.3;5.1;;;;;;;1.92;87.18262;943.8446;;;;
2021/01/18 07:11:58;;;;;;;5.9;2.5;;;;;;;1.89;87.24219;943.8808;;;;
2021/01/18 07:14:24;;;;;;;9.6;4.5;;;;;;;1.95;87.22168;943.884;;;;
2021/01/18 07:16:49;;;;;;;5.5;3.5;;;;;;;2.02;87.0459;943.8947;;;;
2021/01/18 07:19:14;;;;;;;3;2.4;;;;;;;1.94;87.26465;944.0106;;;;
2021/01/18 07:21:39;;;;;;;4.4;3;;;;;;;1.95;87.26758;943.9494;;;;
2021/01/18 07:24:05;;;;;;;3.2;2;;;;;;;2.08;87.03418;944.0698;;;;
2021/01/18 07:26:30;;;;;;;2.8;2;;;;;;;2.16;86.78223;944.0683;;;;
2021/01/18 07:28:56;;;;;;;5.3;2.7;;;;;;;2.22;86.51563;944.0488;;;;
2021/01/18 07:31:21;;;;;;;3.8;2.4;;;;;;;2.19;86.56641;944.1106;;;;
2021/01/18 07:33:47;;;;;;;3.4;2.3;;;;;;;2.22;86.0918;944.0678;;;;
2021/01/18 07:36:12;;;;;;;3.3;2;;;;;;;2.15;86.27832;944.123;;;;
2021/01/18 07:38:37;;;;;;;4.5;2.5;;;;;;;1.99;86.91895;944.1777;;;;
2021/01/18 07:41:04;;;;;;;5.3;2.3;;;;;;;1.98;87.21777;944.2195;;;;
2021/01/18 07:43:29;;;;;;;3.5;2.5;;;;;;;1.95;87.48047;944.1959;;;;
2021/01/18 07:45:57;;;;;;;2;1.6;;;;;;;2.08;87.31445;944.2512;;;;
2021/01/18 07:48:22;;;;;;;3.3;1.6;;;;;;;2.18;86.7998;944.2836;;;;
2021/01/18 07:50:47;;;;;;;3.2;1.8;;;;;;;2.12;86.97852;944.296;;;;
2021/01/18 07:53:14;;;;;;;2.9;2;;;;;;;2.16;86.96387;944.3159;;;;
2021/01/18 07:55:37;;;;;;;2.2;1.7;;;;;;;2.28;86.58496;944.2823;;;;
2021/01/18 07:58:04;;;;;;;2;1.8;;;;;;;2.17;86.82031;944.3016;;;;
2021/01/18 08:00:29;;;;;;;2.6;1.9;;;;;;;2.06;87.33301;944.2595;;;;
2021/01/18 08:02:54;;;;;;;2.7;2;;;;;;;2.19;87.41699;944.3253;;;;
2021/01/18 08:05:19;;;;;;;4.8;2.6;;;;;;;2.34;86.7207;944.3379;;;;
2021/01/18 08:07:44;;;;;;;2.7;1.8;;;;;;;2.46;86.25195;944.3336;;;;
2021/01/18 08:10:10;;;;;;;2.4;1.9;;;;;;;2.48;85.95313;944.3394;;;;
2021/01/18 08:12:35;;;;;;;3.4;2.3;;;;;;;2.57;85.20898;944.257;;;;
2021/01/18 08:15:02;;;;;;;1.9;1.7;;;;;;;2.61;85.09473;944.2778;;;;
2021/01/18 08:17:27;;;;;;;2.4;1.7;;;;;;;2.66;85.1709;944.3431;;;;
2021/01/18 08:19:52;;;;;;;2.4;1.6;;;;;;;2.8;84.95117;944.425;;;;
2021/01/18 08:22:17;;;;;;;2.1;1.9;;;;;;;2.78;84.44336;944.3627;;;;
2021/01/18 08:24:42;;;;;;;2.9;2.2;;;;;;;2.75;84.5498;944.4314;;;;
2021/01/18 08:27:08;;;;;;;2.1;1.7;;;;;;;2.78;84.75879;944.4142;;;;
2021/01/18 08:29:33;;;;;;;4.8;2.7;;;;;;;2.82;85.25781;944.4311;;;;
2021/01/18 08:31:58;;;;;;;2;1.8;;;;;;;2.9;84.79199;944.4916;;;;
2021/01/18 08:34:23;;;;;;;4.5;2.5;;;;;;;2.94;84.19531;944.4953;;;;
2021/01/18 08:36:48;;;;;;;2.7;1.7;;;;;;;2.98;84.06934;944.48;;;;
2021/01/18 08:39:14;;;;;;;2.9;1.8;;;;;;;3.14;84.08887;944.4246;;;;
2021/01/18 08:41:39;;;;;;;3.3;2;;;;;;;3.24;83.83887;944.4444;;;;
2021/01/18 08:44:04;;;;;;;2.6;1.9;;;;;;;3.39;82.67676;944.4726;;;;
2021/01/18 08:46:30;;;;;;;5.7;2.4;;;;;;;3.35;82.17773;944.4964;;;;
2021/01/18 08:48:55;;;;;;;1.5;1.4;;;;;;;3.43;82.00098;944.4688;;;;
2021/01/18 08:51:20;;;;;;;2.8;1.8;;;;;;;3.55;81.89063;944.5627;;;;
2021/01/18 08:53:45;;;;;;;2.4;1.8;;;;;;;3.63;81.56738;944.5262;;;;
2021/01/18 08:56:10;;;;;;;1.7;1.6;;;;;;;3.72;80.94434;944.538;;;;
2021/01/18 08:58:36;;;;;;;6.4;1.9;;;;;;;3.81;80.56836;944.5086;;;;
2021/01/18 09:01:01;;;;;;;3.4;2.3;;;;;;;3.88;80.22168;944.5036;;;;
2021/01/18 09:03:28;;;;;;;3.2;2.1;;;;;;;3.92;80.16113;944.5692;;;;
2021/01/18 09:05:53;;;;;;;3.9;2.7;;;;;;;3.82;80.87305;944.5828;;;;
2021/01/18 09:08:18;;;;;;;5.8;2.8;;;;;;;3.89;80.00977;944.6042;;;;
2021/01/18 09:10:46;;;;;;;3.6;2.3;;;;;;;4.06;79.69336;944.6042;;;;
2021/01/18 09:13:12;;;;;;;3.2;2.1;;;;;;;4.12;79.34375;944.561;;;;
2021/01/18 09:15:38;;;;;;;3.1;2;;;;;;;4.21;79.00195;944.6047;;;;
2021/01/18 09:18:05;;;;;;;2.9;2.2;;;;;;;4.47;78.35254;944.6823;;;;
2021/01/18 09:20:30;;;;;;;2.7;2;;;;;;;4.57;77.08691;944.6147;;;;
2021/01/18 09:22:56;;;;;;;2.5;1.9;;;;;;;4.73;76.39453;944.7131;;;;
2021/01/18 09:25:21;;;;;;;3.1;2;;;;;;;4.74;76.04688;944.753;;;;
2021/01/18 09:27:48;;;;;;;1.8;1.4;;;;;;;4.7;76.5918;944.7057;;;;
2021/01/18 09:30:18;;;;;;;2.1;1.7;;;;;;;4.68;76.03516;944.6724;;;;
2021/01/18 09:32:43;;;;;;;3.4;2;;;;;;;4.61;76.15918;944.7492;;;;
2021/01/18 09:35:08;;;;;;;2.9;1.5;;;;;;;4.49;75.86816;944.81;;;;
2021/01/18 09:37:34;;;;;;;2.5;1.7;;;;;;;4.55;76.22656;944.8347;;;;
2021/01/18 09:39:59;;;;;;;3.7;1.8;;;;;;;4.55;76.54199;944.7905;;;;
2021/01/18 09:42:26;;;;;;;3;1.9;;;;;;;4.65;75.93066;944.7928;;;;
2021/01/18 09:44:51;;;;;;;2.6;1.9;;;;;;;4.49;76.73535;944.8235;;;;
2021/01/18 09:47:16;;;;;;;2.8;1.7;;;;;;;4.62;76.19434;944.8591;;;;
2021/01/18 09:49:41;;;;;;;3.2;2;;;;;;;4.66;75.97754;944.8002;;;;
2021/01/18 09:52:07;;;;;;;2.5;1.7;;;;;;;4.78;75.38965;944.8312;;;;
2021/01/18 09:54:32;;;;;;;3.2;2;;;;;;;4.8;74.99902;944.7241;;;;
2021/01/18 09:56:57;;;;;;;4.2;1.4;;;;;;;4.84;74.75684;944.7574;;;;
2021/01/18 09:59:22;;;;;;;4.6;1.6;;;;;;;4.74;74.42578;944.7667;;;;
2021/01/18 10:01:47;;;;;;;2.6;1.4;;;;;;;4.65;74.03711;944.7286;;;;
2021/01/18 10:04:12;;;;;;;2.5;1.7;;;;;;;4.67;74.71777;944.7833;;;;
2021/01/18 10:06:39;;;;;;;3.6;2;;;;;;;4.87;74.03125;944.7357;;;;
2021/01/18 10:09:04;;;;;;;3.9;1.9;;;;;;;4.95;73.97754;944.7074;;;;
2021/01/18 10:11:33;;;;;;;34.8;13.3;;;;;;;4.96;73.61719;944.7505;;;;
2021/01/18 10:13:56;;;;;;;7;3.3;;;;;;;4.85;73.71289;944.743;;;;
2021/01/18 10:16:21;;;;;;;2.1;1.5;;;;;;;4.79;74.51074;944.7778;;;;
2021/01/18 10:18:48;;;;;;;0.8;0.7;;;;;;;4.58;75.0625;944.762;;;;
2021/01/18 10:21:11;;;;;;;0.8;0.8;;;;;;;4.74;74.875;944.757;;;;
2021/01/18 10:23:36;;;;;;;1.2;1.1;;;;;;;4.82;74.84473;944.7036;;;;
2021/01/18 10:26:01;;;;;;;0.8;0.7;;;;;;;4.76;74.2832;944.6631;;;;
2021/01/18 10:28:27;;;;;;;1.1;1;;;;;;;4.56;74.52832;944.7491;;;;
2021/01/18 10:30:52;;;;;;;2.9;0.8;;;;;;;4.63;74.56348;944.7177;;;;
2021/01/18 10:33:17;;;;;;;0.8;0.7;;;;;;;4.63;75.19434;944.7463;;;;
2021/01/18 10:35:44;;;;;;;0.7;0.7;;;;;;;4.39;75.46777;944.6826;;;;
2021/01/18 10:38:09;;;;;;;1.4;0.9;;;;;;;4.19;76.47754;944.6853;;;;
2021/01/18 10:40:36;;;;;;;1.8;1.1;;;;;;;3.93;77.29785;944.6918;;;;
2021/01/18 10:43:02;;;;;;;2.8;1.4;;;;;;;3.94;76.91699;944.6979;;;;
2021/01/18 10:45:28;;;;;;;1.4;1.3;;;;;;;3.91;78.03613;944.6846;;;;
2021/01/18 10:47:53;;;;;;;2.6;1.7;;;;;;;3.9;77.37109;944.6567;;;;
2021/01/18 10:50:18;;;;;;;1.4;1.1;;;;;;;4.12;78.6123;944.6027;;;;
2021/01/18 10:52:43;;;;;;;0.7;0.7;;;;;;;4.52;77.22363;944.5968;;;;
2021/01/18 10:55:08;;;;;;;0.9;0.7;;;;;;;4.54;75.07813;944.5118;;;;
2021/01/18 10:57:33;;;;;;;0.6;0.6;;;;;;;4.51;75.16211;944.6406;;;;
2021/01/18 10:59:58;;;;;;;0.6;0.5;;;;;;;4.89;74.1709;944.6208;;;;
2021/01/18 11:02:24;;;;;;;0.6;0.6;;;;;;;5;73.20898;944.671;;;;
2021/01/18 11:04:49;;;;;;;0.7;0.6;;;;;;;4.57;73.78809;944.6147;;;;
2021/01/18 11:07:14;;;;;;;0.5;0.5;;;;;;;4.92;73.26172;944.5073;;;;
2021/01/18 11:09:39;;;;;;;1.3;0.6;;;;;;;5.49;72.90723;944.5656;;;;
2021/01/18 11:12:04;;;;;;;1.3;0.6;;;;;;;5.89;71.16797;944.5092;;;;
2021/01/18 11:14:29;;;;;;;0.3;0.3;;;;;;;5.95;69.47266;944.53;;;;
2021/01/18 11:16:54;;;;;;;0.2;0.2;;;;;;;5.88;68.76074;944.5436;;;;
2021/01/18 11:19:19;;;;;;;1.8;0.9;;;;;;;5.57;69.70508;944.5637;;;;
2021/01/18 11:21:45;;;;;;;0.7;0.7;;;;;;;5.62;70.13184;944.5399;;;;
2021/01/18 11:24:10;;;;;;;1.5;0.9;;;;;;;5.37;70.53027;944.5148;;;;
2021/01/18 11:26:35;;;;;;;1.3;0.8;;;;;;;5.1;70.87012;944.4771;;;;
2021/01/18 11:29:00;;;;;;;1.1;0.9;;;;;;;4.88;72.5791;944.4011;;;;
2021/01/18 11:31:26;;;;;;;1.6;0.8;;;;;;;4.47;73.60156;944.4103;;;;
2021/01/18 11:33:51;;;;;;;1.3;1.1;;;;;;;3.92;75.82129;944.3738;;;;
2021/01/18 11:36:19;;;;;;;1.7;1.2;;;;;;;4;76.79199;944.3496;;;;
2021/01/18 11:38:44;;;;;;;4;1.5;;;;;;;3.89;76.2998;944.3387;;;;
2021/01/18 11:41:09;;;;;;;1.4;0.9;;;;;;;3.63;77.58008;944.2751;;;;
2021/01/18 11:43:34;;;;;;;1.6;1.2;;;;;;;3.67;77.89063;944.3608;;;;
2021/01/18 11:46:01;;;;;;;1.2;1;;;;;;;3.61;76.32813;944.2928;;;;
2021/01/18 11:48:26;;;;;;;1.3;1;;;;;;;3.72;77.53906;944.3017;;;;
2021/01/18 11:50:52;;;;;;;1;0.6;;;;;;;4;75.05078;944.2506;;;;
2021/01/18 11:53:18;;;;;;;3.2;1.2;;;;;;;4.22;74.49023;944.2606;;;;
2021/01/18 11:55:45;;;;;;;1.1;1;;;;;;;4.18;74.74512;944.2067;;;;
2021/01/18 11:58:10;;;;;;;2.1;1.5;;;;;;;4.21;75.08691;944.1791;;;;
2021/01/18 12:00:35;;;;;;;1.4;1.1;;;;;;;4.11;75.3623;944.2145;;;;
2021/01/18 12:03:00;;;;;;;2;1.1;;;;;;;4.07;76.33398;944.2186;;;;
2021/01/18 12:05:26;;;;;;;2.2;1.5;;;;;;;4.3;75.125;944.1908;;;;
2021/01/18 12:07:53;;;;;;;3.8;1.2;;;;;;;4.53;74.84961;944.1429;;;;
2021/01/18 12:10:18;;;;;;;1.3;0.8;;;;;;;4.36;74.02051;944.0867;;;;
2021/01/18 12:12:45;;;;;;;1.4;1;;;;;;;4.5;73.71777;944.1323;;;;
2021/01/18 12:15:10;;;;;;;1;0.7;;;;;;;4.71;71.96387;944.0748;;;;
2021/01/18 12:17:37;;;;;;;1.3;1.1;;;;;;;4.55;72.32129;944.0652;;;;
2021/01/18 12:20:02;;;;;;;1.7;1.4;;;;;;;4.68;71.90332;944.0012;;;;
2021/01/18 12:22:28;;;;;;;2.2;1.5;;;;;;;4.47;72.36328;944.0398;;;;
2021/01/18 12:24:53;;;;;;;0.9;0.9;;;;;;;4.45;72.04395;944.052;;;;
2021/01/18 12:27:20;;;;;;;3.5;1.6;;;;;;;4.66;71.31348;944.0295;;;;
2021/01/18 12:29:45;;;;;;;4.6;1.6;;;;;;;4.42;70.7002;944.0591;;;;
2021/01/18 12:32:10;;;;;;;2.9;1.5;;;;;;;4.42;72.16309;943.9066;;;;
2021/01/18 12:34:37;;;;;;;1.2;0.9;;;;;;;4.69;71.75879;943.9598;;;;
2021/01/18 12:37:02;;;;;;;6.2;2.1;;;;;;;4.89;70.44141;944.0291;;;;
2021/01/18 12:39:29;;;;;;;0.9;0.8;;;;;;;5.1;69.58301;944.0485;;;;
2021/01/18 12:41:54;;;;;;;1.5;1;;;;;;;5.49;68.33789;944.0158;;;;
2021/01/18 12:44:21;;;;;;;1.9;1.4;;;;;;;5.39;68.59277;944.0222;;;;
2021/01/18 12:46:49;;;;;;;0.7;0.7;;;;;;;5.59;68.61426;944.0637;;;;
2021/01/18 12:49:11;;;;;;;1.1;0.9;;;;;;;5.74;67.97168;943.9763;;;;
2021/01/18 12:51:36;;;;;;;1.6;0.7;;;;;;;5.84;68.03418;943.9773;;;;
2021/01/18 12:54:01;;;;;;;3.1;1;;;;;;;5.87;66.94238;943.975;;;;
2021/01/18 12:56:28;;;;;;;1.2;1.1;;;;;;;6.12;66.70996;943.9662;;;;
2021/01/18 12:58:52;;;;;;;1.4;1.1;;;;;;;6.17;65.41797;943.9255;;;;
2021/01/18 13:01:18;;;;;;;0.6;0.5;;;;;;;6.45;63.43652;943.9047;;;;
2021/01/18 13:03:44;;;;;;;2.4;2;;;;;;;6.39;64.32031;943.8834;;;;
2021/01/18 13:06:10;;;;;;;0.8;0.7;;;;;;;6.2;63.97559;943.9264;;;;
2021/01/18 13:08:35;;;;;;;0.9;0.8;;;;;;;6.26;63.35059;943.947;;;;
2021/01/18 13:11:02;;;;;;;0.7;0.6;;;;;;;6.31;63.39258;943.853;;;;
2021/01/18 13:13:26;;;;;;;0.9;0.7;;;;;;;6.41;63.75781;943.8417;;;;
2021/01/18 13:15:52;;;;;;;0.7;0.7;;;;;;;5.98;63.89844;943.9288;;;;
2021/01/18 13:18:17;;;;;;;4;0.6;;;;;;;5.91;64.81348;943.9461;;;;
2021/01/18 13:20:43;;;;;;;4.7;1.4;;;;;;;5.99;65.27734;943.9393;;;;
2021/01/18 13:23:08;;;;;;;1.7;1.1;;;;;;;6.01;66.99805;943.9554;;;;
2021/01/18 13:25:36;;;;;;;1.8;1.2;;;;;;;6.14;66.6123;943.8959;;;;
2021/01/18 13:28:01;;;;;;;2.2;0.9;;;;;;;6.15;66.71484;943.8622;;;;
2021/01/18 13:30:26;;;;;;;2.3;1.3;;;;;;;5.91;65.35547;943.8828;;;;
2021/01/18 13:32:51;;;;;;;2.4;1.2;;;;;;;5.86;65.36035;943.9353;;;;
2021/01/18 13:35:17;;;;;;;2.3;1.1;;;;;;;6.05;65.47949;943.9609;;;;
2021/01/18 13:37:41;;;;;;;0.9;0.8;;;;;;;5.96;67.67871;943.9708;;;;
2021/01/18 13:40:08;;;;;;;1.3;0.8;;;;;;;5.85;67.34473;943.9135;;;;
2021/01/18 13:42:33;;;;;;;1.1;0.9;;;;;;;5.7;67.72852;943.9386;;;;
2021/01/18 13:44:59;;;;;;;2.1;1;;;;;;;5.76;68.17773;943.9874;;;;
2021/01/18 13:47:25;;;;;;;3.1;1.6;;;;;;;5.82;68.39063;944.015;;;;
2021/01/18 13:49:50;;;;;;;1.5;1.1;;;;;;;5.79;67.58496;944.0018;;;;
2021/01/18 13:52:15;;;;;;;4.6;1.6;;;;;;;5.48;68.99023;944.058;;;;
2021/01/18 13:54:41;;;;;;;1.5;1.1;;;;;;;5.25;71.2207;944.1011;;;;
2021/01/18 13:57:06;;;;;;;2.4;1.5;;;;;;;5.09;72.07324;944.1633;;;;
2021/01/18 13:59:33;;;;;;;1.1;0.9;;;;;;;5.24;71.72656;944.1964;;;;
2021/01/18 14:01:58;;;;;;;2.8;1;;;;;;;5.17;69.48242;944.1861;;;;
2021/01/18 14:04:23;;;;;;;1.4;1;;;;;;;5.08;68.91504;944.1534;;;;
2021/01/18 14:06:49;;;;;;;4.7;1.1;;;;;;;4.96;70.14746;944.1832;;;;
2021/01/18 14:09:17;;;;;;;1.7;1.1;;;;;;;5.04;69.84375;944.1755;;;;
2021/01/18 14:11:39;;;;;;;2.7;1.3;;;;;;;5.03;70.48633;944.176;;;;
2021/01/18 14:14:04;;;;;;;5.1;1.1;;;;;;;4.58;72.76465;944.2264;;;;
2021/01/18 14:16:29;;;;;;;3.8;0.9;;;;;;;4.48;73.41211;944.2459;;;;
2021/01/18 14:18:55;;;;;;;1.5;0.9;;;;;;;4.38;74.21484;944.2278;;;;
2021/01/18 14:21:20;;;;;;;5.9;0.9;;;;;;;4.46;74.625;944.257;;;;
2021/01/18 14:23:45;;;;;;;1.9;0.9;;;;;;;4.54;74.25586;944.2131;;;;
2021/01/18 14:26:10;;;;;;;0.9;0.7;;;;;;;4.17;74.66309;944.2392;;;;
2021/01/18 14:28:37;;;;;;;4.6;0.8;;;;;;;4.12;74.89063;944.2161;;;;
2021/01/18 14:31:03;;;;;;;0.7;0.7;;;;;;;4.13;74.90527;944.2449;;;;
2021/01/18 14:33:28;;;;;;;0.8;0.7;;;;;;;4.13;74.10547;944.2053;;;;
2021/01/18 14:35:53;;;;;;;3.3;0.9;;;;;;;4.1;73.22168;944.1888;;;;
2021/01/18 14:38:18;;;;;;;0.7;0.7;;;;;;;4.14;73.46582;944.1852;;;;
2021/01/18 14:40:43;;;;;;;1.4;1;;;;;;;4.21;71.90332;944.2137;;;;
2021/01/18 14:43:08;;;;;;;1.4;0.9;;;;;;;4.25;71.35938;944.2242;;;;
2021/01/18 14:45:34;;;;;;;1.4;0.8;;;;;;;4.17;71.33301;944.2606;;;;
2021/01/18 14:47:59;;;;;;;3.8;1;;;;;;;4.22;71.22754;944.1975;;;;
2021/01/18 14:50:24;;;;;;;1.1;1;;;;;;;4.23;71.18457;944.238;;;;
2021/01/18 14:52:50;;;;;;;2.5;1.4;;;;;;;4.24;71.38965;944.3231;;;;
2021/01/18 14:55:15;;;;;;;6.3;1.4;;;;;;;4.1;72.73926;944.3539;;;;
2021/01/18 14:57:41;;;;;;;1.1;1;;;;;;;3.99;74.06836;944.3242;;;;
2021/01/18 15:00:07;;;;;;;62.4;26.2;;;;;;;4.07;73.98145;944.3596;;;;
2021/01/18 15:02:33;;;;;;;11.5;4.6;;;;;;;3.97;75.66211;944.3098;;;;
2021/01/18 15:05:00;;;;;;;6;3.8;;;;;;;3.92;76.10449;944.3733;;;;
2021/01/18 15:07:23;;;;;;;4.2;2.3;;;;;;;3.87;76.47656;944.36;;;;
2021/01/18 15:09:49;;;;;;;4.9;3.3;;;;;;;3.89;76.43457;944.3828;;;;
2021/01/18 15:12:14;;;;;;;4.6;2;;;;;;;3.8;76.16211;944.3878;;;;
2021/01/18 15:14:40;;;;;;;3.8;2.3;;;;;;;3.78;75.91016;944.3951;;;;
2021/01/18 15:17:05;;;;;;;3.4;1.7;;;;;;;3.68;76.375;944.3147;;;;
2021/01/18 15:19:32;;;;;;;2.6;1.2;;;;;;;3.39;77.56934;944.4153;;;;
2021/01/18 15:21:57;;;;;;;1.9;1.4;;;;;;;3.11;78.2373;944.4217;;;;
2021/01/18 15:24:22;;;;;;;2.4;1.4;;;;;;;3;78.92383;944.4514;;;;
2021/01/18 15:26:47;;;;;;;1.7;1;;;;;;;2.97;78.51465;944.4637;;;;
2021/01/18 15:29:15;;;;;;;1.6;1.2;;;;;;;2.93;78.8877;944.4256;;;;
2021/01/18 15:31:41;;;;;;;1.2;1.1;;;;;;;2.9;79.17285;944.4586;;;;
2021/01/18 15:34:06;;;;;;;2.4;1.5;;;;;;;2.94;78.30664;944.4243;;;;
2021/01/18 15:36:31;;;;;;;2.9;1.5;;;;;;;2.94;77.58789;944.3639;;;;
2021/01/18 15:38:56;;;;;;;1.7;1.5;;;;;;;2.84;78.17578;944.3499;;;;
2021/01/18 15:41:21;;;;;;;2.7;1.8;;;;;;;2.81;78.12598;944.3248;;;;